Time;durP1;ratioP1;P1;durP2;ratioP2;P2;SDS_P1;SDS_P2;PMS_P1;PMS_P2;Temp;Humidity;BMP_temperature;BMP_pressure;BME280_temperature;BME280_humidity;BME280_pressure;Samples;Min_cycle;Max_cycle;Signal;HPM_P1;HPM_P2
2022/05/09 00:02:45;;;;;;;2.55;1.48;;;;;;;;;;12616754;23;20540;-69
2022/05/09 00:07:46;;;;;;;1.77;1.48;;;;;;;;;;12646769;23;20181;-69
2022/05/09 00:12:48;;;;;;;2.53;1.35;;;;;;;;;;12596080;23;20185;-70
2022/05/09 00:17:49;;;;;;;1.88;1.30;;;;;;;;;;12640673;23;20207;-70
2022/05/09 00:22:52;;;;;;;3.45;2.17;;;;;;;;;;12641051;23;20181;-72
2022/05/09 00:27:53;;;;;;;2.45;1.80;;;;;;;;;;12613225;23;20235;-71
2022/05/09 00:32:54;;;;;;;3.95;1.88;;;;;;;;;;12640097;23;20621;-72
2022/05/09 00:37:55;;;;;;;3.97;1.80;;;;;;;;;;12618453;23;20192;-72
2022/05/09 00:42:56;;;;;;;2.10;1.75;;;;;;;;;;12642885;23;20177;-69
2022/05/09 00:47:57;;;;;;;5.70;1.85;;;;;;;;;;12633890;23;20575;-71
2022/05/09 00:53:00;;;;;;;4.78;1.70;;;;;;;;;;12608960;23;20242;-70
2022/05/09 00:58:15;;;;;;;2.80;1.30;;;;;;;;;;12633937;23;20189;-70
2022/05/09 01:03:22;;;;;;;1.95;1.70;;;;;;;;;;12634691;23;20521;-70
2022/05/09 01:08:25;;;;;;;2.65;1.92;;;;;;;;;;12628029;23;20181;-70
2022/05/09 01:13:30;;;;;;;5.13;1.88;;;;;;;;;;12614563;23;20648;-69
2022/05/09 01:18:31;;;;;;;2.63;1.70;;;;;;;;;;12636111;23;20181;-71
2022/05/09 01:23:35;;;;;;;3.83;1.50;;;;;;;;;;12635357;23;20176;-70
2022/05/09 01:28:36;;;;;;;4.05;1.88;;;;;;;;;;12625282;23;20320;-69
2022/05/09 01:33:39;;;;;;;4.78;1.73;;;;;;;;;;12609646;23;20772;-70
2022/05/09 01:38:56;;;;;;;3.30;1.80;;;;;;;;;;12637212;23;20186;-70
2022/05/09 01:43:57;;;;;;;4.53;2.05;;;;;;;;;;12634153;23;20184;-70
2022/05/09 01:54:18;;;;;;;2.70;1.77;;;;;;;;;;12639404;23;20737;-71
2022/05/09 01:59:19;;;;;;;4.30;2.00;;;;;;;;;;12623733;23;20278;-70
2022/05/09 02:04:22;;;;;;;4.43;2.10;;;;;;;;;;12609214;23;20209;-70
2022/05/09 02:09:23;;;;;;;4.72;2.08;;;;;;;;;;12636541;23;20181;-70
2022/05/09 02:14:24;;;;;;;7.03;2.20;;;;;;;;;;12638352;23;20196;-70
2022/05/09 02:19:27;;;;;;;3.20;1.90;;;;;;;;;;12609913;23;20256;-70
2022/05/09 02:24:28;;;;;;;3.75;2.08;;;;;;;;;;12633957;23;20710;-70
2022/05/09 02:29:31;;;;;;;3.67;1.98;;;;;;;;;;12635300;23;20205;-71
2022/05/09 02:34:32;;;;;;;2.50;2.13;;;;;;;;;;12630822;23;20211;-69
2022/05/09 02:39:33;;;;;;;8.10;2.50;;;;;;;;;;12637945;23;20177;-70
2022/05/09 02:44:34;;;;;;;6.72;1.98;;;;;;;;;;12636177;23;20220;-70
2022/05/09 02:49:35;;;;;;;5.47;2.08;;;;;;;;;;12607320;23;20704;-71
2022/05/09 02:54:36;;;;;;;5.72;2.55;;;;;;;;;;12634878;23;20189;-70
2022/05/09 02:59:38;;;;;;;2.58;1.85;;;;;;;;;;12638231;23;20184;-71
2022/05/09 03:04:41;;;;;;;1.85;1.75;;;;;;;;;;12637593;23;20267;-72
2022/05/09 03:09:48;;;;;;;3.30;2.40;;;;;;;;;;12614902;23;21037;-70
2022/05/09 03:14:49;;;;;;;7.72;2.47;;;;;;;;;;12641118;23;20193;-70
2022/05/09 03:19:50;;;;;;;5.45;2.15;;;;;;;;;;12642933;23;20286;-69
2022/05/09 03:24:51;;;;;;;4.38;2.10;;;;;;;;;;12636078;23;20216;-71
2022/05/09 03:29:53;;;;;;;3.50;2.20;;;;;;;;;;12633930;23;20201;-70
2022/05/09 03:34:54;;;;;;;5.68;2.15;;;;;;;;;;12641283;23;20207;-71
2022/05/09 03:39:55;;;;;;;3.67;2.42;;;;;;;;;;12646008;23;20185;-70
2022/05/09 03:44:57;;;;;;;5.18;2.42;;;;;;;;;;12634390;23;20845;-70
2022/05/09 03:50:00;;;;;;;6.63;2.50;;;;;;;;;;12640721;23;20224;-70
2022/05/09 03:55:02;;;;;;;4.65;1.80;;;;;;;;;;12612763;23;20197;-69
2022/05/09 04:00:04;;;;;;;9.52;3.13;;;;;;;;;;12638338;23;20185;-70
2022/05/09 04:05:06;;;;;;;8.82;2.90;;;;;;;;;;12639370;23;20205;-69
2022/05/09 04:10:09;;;;;;;9.40;3.10;;;;;;;;;;12637997;23;20177;-69
2022/05/09 04:20:31;;;;;;;5.78;3.30;;;;;;;;;;12639959;23;20192;-70
2022/05/09 04:25:32;;;;;;;7.32;3.25;;;;;;;;;;12629382;23;20624;-70
2022/05/09 04:30:35;;;;;;;7.85;3.35;;;;;;;;;;12600561;23;20208;-69
2022/05/09 04:35:38;;;;;;;10.82;3.50;;;;;;;;;;12627643;23;20197;-69
2022/05/09 04:40:40;;;;;;;3.40;3.10;;;;;;;;;;12602260;23;20181;-70
2022/05/09 04:45:42;;;;;;;3.47;2.50;;;;;;;;;;12626352;23;20224;-70
2022/05/09 04:50:45;;;;;;;8.13;3.38;;;;;;;;;;12636608;23;20263;-70
2022/05/09 04:55:47;;;;;;;10.00;3.78;;;;;;;;;;12633839;23;20184;-70
2022/05/09 05:00:48;;;;;;;4.43;3.28;;;;;;;;;;12615848;23;20196;-70
2022/05/09 05:05:52;;;;;;;6.47;3.40;;;;;;;;;;12627718;23;20181;-70
2022/05/09 05:10:54;;;;;;;5.07;3.50;;;;;;;;;;12604414;23;20924;-70
2022/05/09 05:15:57;;;;;;;5.05;3.65;;;;;;;;;;12593680;23;20722;-72
2022/05/09 05:20:58;;;;;;;6.43;3.90;;;;;;;;;;12645934;23;20192;-69
2022/05/09 05:26:00;;;;;;;8.70;3.63;;;;;;;;;;12617992;23;20267;-70
2022/05/09 05:31:15;;;;;;;8.10;4.00;;;;;;;;;;12593066;23;20258;-70
2022/05/09 05:36:16;;;;;;;10.35;4.88;;;;;;;;;;12641335;23;20192;-70
2022/05/09 05:41:18;;;;;;;9.88;4.45;;;;;;;;;;12644932;23;20179;-70
2022/05/09 05:46:19;;;;;;;14.55;4.78;;;;;;;;;;12618481;23;20203;-70
2022/05/09 05:51:21;;;;;;;8.48;4.18;;;;;;;;;;12644216;23;20191;-70
2022/05/09 05:56:22;;;;;;;7.65;3.90;;;;;;;;;;12642910;23;20192;-71
2022/05/09 06:01:23;;;;;;;16.38;5.07;;;;;;;;;;12614998;23;20658;-70
2022/05/09 06:06:24;;;;;;;9.70;4.47;;;;;;;;;;12619178;23;20582;-69
2022/05/09 06:11:25;;;;;;;9.80;4.45;;;;;;;;;;12643680;23;20188;-71
2022/05/09 06:16:26;;;;;;;8.80;4.50;;;;;;;;;;12616671;23;20558;-71
2022/05/09 06:21:27;;;;;;;9.43;4.10;;;;;;;;;;12641477;23;20177;-72
2022/05/09 06:26:28;;;;;;;12.00;5.30;;;;;;;;;;12641482;23;20682;-70
2022/05/09 06:31:30;;;;;;;11.52;4.30;;;;;;;;;;12641505;23;21420;-71
2022/05/09 06:36:34;;;;;;;6.93;3.45;;;;;;;;;;12640002;23;20188;-70
2022/05/09 06:41:35;;;;;;;8.77;3.15;;;;;;;;;;12641389;23;20579;-72
2022/05/09 06:46:36;;;;;;;9.45;3.03;;;;;;;;;;12618983;23;20689;-70
2022/05/09 06:51:38;;;;;;;6.45;3.25;;;;;;;;;;12596751;23;20185;-71
2022/05/09 06:56:39;;;;;;;5.72;2.80;;;;;;;;;;12620724;23;20565;-70
2022/05/09 07:01:42;;;;;;;10.63;2.80;;;;;;;;;;12641142;23;20204;-70
2022/05/09 07:06:43;;;;;;;6.30;2.55;;;;;;;;;;12596861;23;20621;-73
2022/05/09 07:11:45;;;;;;;6.88;2.70;;;;;;;;;;12619558;23;20184;-73
2022/05/09 07:16:46;;;;;;;9.63;2.40;;;;;;;;;;12614123;23;20520;-74
2022/05/09 07:21:47;;;;;;;7.03;2.90;;;;;;;;;;12642598;23;20276;-73
2022/05/09 07:26:48;;;;;;;6.72;2.65;;;;;;;;;;12642212;23;20711;-73
2022/05/09 07:31:50;;;;;;;9.10;2.60;;;;;;;;;;12588930;23;20262;-73
2022/05/09 07:36:51;;;;;;;7.47;2.70;;;;;;;;;;12641006;23;20193;-72
2022/05/09 07:41:52;;;;;;;6.38;2.63;;;;;;;;;;12640918;23;20742;-73
2022/05/09 07:46:53;;;;;;;8.68;2.97;;;;;;;;;;12609753;23;20185;-73
2022/05/09 07:51:54;;;;;;;11.40;2.38;;;;;;;;;;12613448;23;20260;-72
2022/05/09 07:56:55;;;;;;;6.55;2.47;;;;;;;;;;12614488;23;20471;-74
2022/05/09 08:01:56;;;;;;;7.05;2.65;;;;;;;;;;12641812;23;20200;-72
2022/05/09 08:06:57;;;;;;;6.88;2.60;;;;;;;;;;12613730;23;20203;-74
2022/05/09 08:11:58;;;;;;;4.95;2.85;;;;;;;;;;12636400;23;20682;-72
2022/05/09 08:17:00;;;;;;;6.95;2.63;;;;;;;;;;12636738;23;20220;-73
2022/05/09 08:22:02;;;;;;;11.77;2.70;;;;;;;;;;12644989;23;20180;-73
2022/05/09 08:27:03;;;;;;;2.88;2.13;;;;;;;;;;12645971;23;20227;-72
2022/05/09 08:32:05;;;;;;;6.50;2.67;;;;;;;;;;12621808;23;20209;-72
2022/05/09 08:37:08;;;;;;;8.50;2.95;;;;;;;;;;12644927;23;20188;-73
2022/05/09 08:42:13;;;;;;;5.47;2.55;;;;;;;;;;12623482;23;20181;-73
2022/05/09 08:47:33;;;;;;;5.30;2.45;;;;;;;;;;12645786;23;20196;-72
2022/05/09 08:52:44;;;;;;;6.63;2.65;;;;;;;;;;12612276;23;20185;-73
2022/05/09 08:58:03;;;;;;;11.25;2.88;;;;;;;;;;12621525;23;20671;-73
2022/05/09 09:03:14;;;;;;;8.27;2.63;;;;;;;;;;12643484;23;20211;-74
2022/05/09 09:08:21;;;;;;;6.90;2.75;;;;;;;;;;12608684;23;20236;-73
2022/05/09 09:13:30;;;;;;;8.68;2.75;;;;;;;;;;12642397;23;20701;-73
2022/05/09 09:18:37;;;;;;;8.75;2.20;;;;;;;;;;12644210;23;20181;-73
2022/05/09 09:23:44;;;;;;;8.73;2.42;;;;;;;;;;12639600;23;20204;-74
2022/05/09 09:28:49;;;;;;;6.80;2.40;;;;;;;;;;12613211;23;20216;-74
2022/05/09 09:33:54;;;;;;;7.95;1.90;;;;;;;;;;12638956;23;20215;-73
2022/05/09 09:38:58;;;;;;;6.68;2.35;;;;;;;;;;12638796;23;20204;-74
2022/05/09 09:44:13;;;;;;;4.28;1.85;;;;;;;;;;12634970;23;20185;-73
2022/05/09 09:49:17;;;;;;;5.90;2.13;;;;;;;;;;12611802;23;20187;-74
2022/05/09 09:54:23;;;;;;;3.88;2.00;;;;;;;;;;12640104;23;20196;-74
2022/05/09 09:59:29;;;;;;;4.38;1.65;;;;;;;;;;12638963;23;20287;-74
2022/05/09 10:04:31;;;;;;;4.18;2.15;;;;;;;;;;12616653;23;20212;-74
2022/05/09 10:09:43;;;;;;;6.35;1.77;;;;;;;;;;12645417;23;20177;-74
2022/05/09 10:14:44;;;;;;;7.95;2.30;;;;;;;;;;12644420;23;20192;-74
2022/05/09 10:19:48;;;;;;;4.82;1.65;;;;;;;;;;12618352;23;20263;-74
2022/05/09 10:24:50;;;;;;;6.47;1.80;;;;;;;;;;12641673;23;20264;-74
2022/05/09 10:29:56;;;;;;;5.10;1.60;;;;;;;;;;12650163;23;20228;-74
2022/05/09 10:35:05;;;;;;;4.57;1.58;;;;;;;;;;12644586;23;20215;-74
2022/05/09 10:40:12;;;;;;;3.88;1.85;;;;;;;;;;12640462;23;20223;-74
2022/05/09 10:45:14;;;;;;;3.53;1.48;;;;;;;;;;12645801;23;20216;-75
2022/05/09 10:50:28;;;;;;;2.80;1.58;;;;;;;;;;12642867;23;20181;-76
2022/05/09 10:55:41;;;;;;;2.10;1.30;;;;;;;;;;12641941;23;20561;-75
2022/05/09 11:00:46;;;;;;;2.55;1.30;;;;;;;;;;12641449;23;20615;-76
2022/05/09 11:05:52;;;;;;;3.67;1.50;;;;;;;;;;12640901;23;20244;-74
2022/05/09 11:11:02;;;;;;;7.53;1.15;;;;;;;;;;12643621;23;20177;-76
2022/05/09 11:16:06;;;;;;;3.20;1.35;;;;;;;;;;12637325;23;20204;-75
2022/05/09 11:21:13;;;;;;;3.28;1.20;;;;;;;;;;12636514;23;20181;-75
2022/05/09 11:26:17;;;;;;;1.38;0.93;;;;;;;;;;12638011;23;20213;-75
2022/05/09 11:31:34;;;;;;;2.88;0.88;;;;;;;;;;12641799;23;20828;-75
2022/05/09 11:36:40;;;;;;;2.38;0.98;;;;;;;;;;12638650;23;20651;-75
2022/05/09 11:41:41;;;;;;;15.57;1.70;;;;;;;;;;12647180;23;20647;-75
2022/05/09 11:46:48;;;;;;;3.67;1.15;;;;;;;;;;12615029;23;20795;-75
2022/05/09 11:52:08;;;;;;;1.67;1.10;;;;;;;;;;12642341;23;20531;-75
2022/05/09 11:57:17;;;;;;;2.35;1.60;;;;;;;;;;12637480;23;20224;-75
2022/05/09 12:02:37;;;;;;;2.95;1.17;;;;;;;;;;12610899;23;20264;-75
2022/05/09 12:07:38;;;;;;;3.80;1.40;;;;;;;;;;12606937;23;20195;-77
2022/05/09 12:12:43;;;;;;;2.63;1.20;;;;;;;;;;12631197;23;20950;-75
2022/05/09 12:17:48;;;;;;;1.73;1.00;;;;;;;;;;12639900;23;20193;-76
2022/05/09 12:22:51;;;;;;;4.30;1.42;;;;;;;;;;12640645;23;20192;-75
2022/05/09 12:27:52;;;;;;;1.88;1.30;;;;;;;;;;12637894;23;20227;-75
2022/05/09 12:32:53;;;;;;;2.28;1.17;;;;;;;;;;12615915;23;20212;-76
2022/05/09 12:38:00;;;;;;;6.90;1.33;;;;;;;;;;12620431;23;20188;-75
2022/05/09 12:43:02;;;;;;;2.15;1.08;;;;;;;;;;12615688;23;20185;-76
2022/05/09 12:48:03;;;;;;;1.58;0.98;;;;;;;;;;12617564;23;20216;-75
2022/05/09 12:53:06;;;;;;;1.48;1.30;;;;;;;;;;12616338;23;20907;-76
2022/05/09 12:58:23;;;;;;;3.15;1.30;;;;;;;;;;12613996;23;20195;-77
2022/05/09 13:03:24;;;;;;;2.22;1.15;;;;;;;;;;12644478;23;20587;-77
2022/05/09 13:08:36;;;;;;;3.28;0.90;;;;;;;;;;12638912;23;20212;-75
2022/05/09 13:13:37;;;;;;;2.00;1.33;;;;;;;;;;12613264;23;20177;-76
2022/05/09 13:18:39;;;;;;;2.88;1.25;;;;;;;;;;12613415;23;20185;-75
2022/05/09 13:23:42;;;;;;;2.90;1.40;;;;;;;;;;12588096;23;20194;-76
2022/05/09 13:28:45;;;;;;;2.70;1.15;;;;;;;;;;12609390;23;20217;-75
2022/05/09 13:33:49;;;;;;;2.90;1.13;;;;;;;;;;12642065;23;20334;-76
2022/05/09 13:38:50;;;;;;;5.25;1.30;;;;;;;;;;12618477;23;20184;-75
2022/05/09 13:43:54;;;;;;;2.00;1.20;;;;;;;;;;12617474;23;20176;-75
2022/05/09 13:48:56;;;;;;;2.42;1.30;;;;;;;;;;12612704;23;20239;-75
2022/05/09 13:54:00;;;;;;;1.60;1.00;;;;;;;;;;12580405;23;20246;-76
2022/05/09 13:59:04;;;;;;;1.80;1.40;;;;;;;;;;12610273;23;20252;-77
2022/05/09 14:04:06;;;;;;;2.50;0.95;;;;;;;;;;12616029;23;20247;-77
2022/05/09 14:09:14;;;;;;;1.55;0.98;;;;;;;;;;12644014;23;20179;-77
2022/05/09 14:14:33;;;;;;;3.10;1.05;;;;;;;;;;12619045;23;20720;-77
2022/05/09 14:19:38;;;;;;;1.48;1.13;;;;;;;;;;12645763;23;20177;-77
2022/05/09 14:29:36;;;;;;;2.35;1.02;;;;;;;;;;12623833;23;20177;-78
2022/05/09 14:30:04;;;;;;;1.50;0.90;;;;;;;;;;12646265;23;20279;-77
2022/05/09 14:35:05;;;;;;;3.28;1.20;;;;;;;;;;12640562;23;20205;-78
2022/05/09 14:40:06;;;;;;;2.20;1.15;;;;;;;;;;12648568;23;20177;-77
2022/05/09 14:45:07;;;;;;;6.32;1.08;;;;;;;;;;12594914;23;20220;-77
2022/05/09 14:50:16;;;;;;;1.38;0.80;;;;;;;;;;12642399;23;20181;-76
2022/05/09 15:01:05;;;;;;;3.70;1.30;;;;;;;;;;12621596;23;20203;-76
2022/05/09 15:06:07;;;;;;;3.97;1.08;;;;;;;;;;12622840;23;20243;-77
2022/05/09 15:11:10;;;;;;;2.08;1.05;;;;;;;;;;12652588;23;20177;-77
2022/05/09 15:16:14;;;;;;;0.93;0.93;;;;;;;;;;12646526;23;20736;-77
2022/05/09 15:21:16;;;;;;;3.20;0.80;;;;;;;;;;12650133;23;20179;-77
2022/05/09 15:26:19;;;;;;;3.92;0.93;;;;;;;;;;12651609;23;20205;-76
2022/05/09 15:31:20;;;;;;;2.70;1.33;;;;;;;;;;12648260;23;20247;-75
2022/05/09 15:36:24;;;;;;;1.40;1.20;;;;;;;;;;12637629;23;20216;-75
2022/05/09 15:41:26;;;;;;;2.72;1.30;;;;;;;;;;12628360;23;20188;-74
2022/05/09 15:46:28;;;;;;;2.65;1.13;;;;;;;;;;12641060;23;20208;-75
2022/05/09 15:51:30;;;;;;;1.58;1.10;;;;;;;;;;12638841;23;20181;-74
2022/05/09 15:56:33;;;;;;;4.75;1.20;;;;;;;;;;12639940;23;21111;-75
2022/05/09 16:01:35;;;;;;;3.75;1.33;;;;;;;;;;12639258;23;20205;-75
2022/05/09 16:11:56;;;;;;;3.42;1.42;;;;;;;;;;12635163;23;20192;-75
2022/05/09 16:16:59;;;;;;;2.25;1.02;;;;;;;;;;12641207;23;20280;-75
2022/05/09 16:22:01;;;;;;;2.03;1.17;;;;;;;;;;12642012;23;20284;-74
2022/05/09 16:27:03;;;;;;;2.45;1.17;;;;;;;;;;12637808;23;20216;-75
2022/05/09 16:32:05;;;;;;;3.20;1.15;;;;;;;;;;12634404;23;20204;-75
2022/05/09 16:37:07;;;;;;;3.75;1.33;;;;;;;;;;12639694;23;20581;-75
2022/05/09 16:42:19;;;;;;;3.13;1.65;;;;;;;;;;12632863;23;20292;-74
2022/05/09 16:47:20;;;;;;;1.67;0.90;;;;;;;;;;12638175;23;20263;-74
2022/05/09 16:52:21;;;;;;;2.65;1.55;;;;;;;;;;12614790;23;20272;-75
2022/05/09 16:57:23;;;;;;;2.10;1.15;;;;;;;;;;12642575;23;20192;-75
2022/05/09 17:02:26;;;;;;;0.80;0.80;;;;;;;;;;12612083;23;20208;-74
2022/05/09 17:07:27;;;;;;;2.30;1.00;;;;;;;;;;12615716;23;20184;-74
2022/05/09 17:12:30;;;;;;;2.33;1.20;;;;;;;;;;12643546;23;20195;-75
2022/05/09 17:17:39;;;;;;;8.73;1.15;;;;;;;;;;12619611;23;20262;-73
2022/05/09 17:22:40;;;;;;;2.40;1.40;;;;;;;;;;12645076;23;20957;-74
2022/05/09 17:27:41;;;;;;;4.15;1.30;;;;;;;;;;12635057;23;20208;-74
2022/05/09 17:32:42;;;;;;;2.25;1.38;;;;;;;;;;12644812;23;20196;-74
2022/05/09 17:37:43;;;;;;;1.35;1.20;;;;;;;;;;12645796;23;20192;-75
2022/05/09 17:42:45;;;;;;;1.80;0.90;;;;;;;;;;12618953;23;20229;-73
2022/05/09 17:47:46;;;;;;;1.42;0.95;;;;;;;;;;12595913;23;20189;-75
2022/05/09 17:52:47;;;;;;;3.67;1.20;;;;;;;;;;12641050;23;20546;-74
2022/05/09 17:57:48;;;;;;;1.95;1.10;;;;;;;;;;12645511;23;20208;-74
2022/05/09 18:02:51;;;;;;;3.78;1.58;;;;;;;;;;12619612;23;20204;-75
2022/05/09 18:07:52;;;;;;;2.25;1.00;;;;;;;;;;12641418;23;20583;-74
2022/05/09 18:12:55;;;;;;;5.18;1.02;;;;;;;;;;12644422;23;20196;-73
2022/05/09 18:17:58;;;;;;;4.40;1.20;;;;;;;;;;12639254;23;20719;-73
2022/05/09 18:23:07;;;;;;;2.92;1.33;;;;;;;;;;12630633;23;20181;-74
2022/05/09 18:28:09;;;;;;;4.80;1.58;;;;;;;;;;12637525;23;20336;-73
2022/05/09 18:33:14;;;;;;;2.25;1.17;;;;;;;;;;12611264;23;20208;-72
2022/05/09 18:38:18;;;;;;;3.70;1.00;;;;;;;;;;12631541;23;20537;-73
2022/05/09 18:43:19;;;;;;;3.70;1.30;;;;;;;;;;12634740;23;20174;-74
2022/05/09 18:48:20;;;;;;;1.77;1.40;;;;;;;;;;12615544;23;20486;-75
2022/05/09 18:53:21;;;;;;;1.85;1.20;;;;;;;;;;12620291;23;20184;-74
2022/05/09 18:58:23;;;;;;;7.40;2.08;;;;;;;;;;12605061;23;20195;-73
2022/05/09 19:03:24;;;;;;;1.40;1.30;;;;;;;;;;12634372;23;20204;-72
2022/05/09 19:08:25;;;;;;;5.53;3.53;;;;;;;;;;12635612;23;20241;-72
2022/05/09 19:13:27;;;;;;;8.50;4.28;;;;;;;;;;12642891;23;20181;-71
2022/05/09 19:18:28;;;;;;;3.28;3.08;;;;;;;;;;12639240;23;20192;-72
2022/05/09 19:23:29;;;;;;;3.70;2.53;;;;;;;;;;12642616;23;20260;-71
2022/05/09 19:28:32;;;;;;;4.00;1.95;;;;;;;;;;12617320;23;20671;-69
2022/05/09 19:33:33;;;;;;;1.67;1.67;;;;;;;;;;12641871;23;20204;-70
2022/05/09 19:38:37;;;;;;;2.28;1.83;;;;;;;;;;12615572;23;20957;-71
2022/05/09 19:43:39;;;;;;;4.85;1.98;;;;;;;;;;12643640;23;20180;-70
2022/05/09 19:48:40;;;;;;;2.05;1.85;;;;;;;;;;12637401;23;20181;-72
2022/05/09 19:59:01;;;;;;;3.38;2.47;;;;;;;;;;12632616;23;20259;-71
2022/05/09 20:04:02;;;;;;;6.25;1.88;;;;;;;;;;12640876;23;20748;-70
2022/05/09 20:09:12;;;;;;;2.28;1.80;;;;;;;;;;12624610;23;20188;-70
2022/05/09 20:14:13;;;;;;;1.75;1.60;;;;;;;;;;12646687;23;20200;-70
2022/05/09 20:19:14;;;;;;;4.57;1.58;;;;;;;;;;12640650;23;20177;-71
2022/05/09 20:24:19;;;;;;;1.73;1.60;;;;;;;;;;12589917;23;20205;-71
2022/05/09 20:34:40;;;;;;;1.95;1.75;;;;;;;;;;12644134;23;20201;-71
2022/05/09 20:39:41;;;;;;;3.63;1.95;;;;;;;;;;12592196;23;20267;-70
2022/05/09 20:44:44;;;;;;;2.35;1.80;;;;;;;;;;12620738;23;20176;-72
2022/05/09 20:49:45;;;;;;;2.88;2.00;;;;;;;;;;12613191;23;20215;-71
2022/05/09 20:54:46;;;;;;;2.42;2.17;;;;;;;;;;12642563;23;20193;-71
2022/05/09 20:59:47;;;;;;;2.33;2.13;;;;;;;;;;12587265;23;20264;-71
2022/05/09 21:04:48;;;;;;;3.33;2.47;;;;;;;;;;12639220;23;20236;-69
2022/05/09 21:09:50;;;;;;;5.05;2.63;;;;;;;;;;12637549;23;20185;-70
2022/05/09 21:14:52;;;;;;;4.43;2.50;;;;;;;;;;12610821;23;20188;-70
2022/05/09 21:19:53;;;;;;;3.08;2.85;;;;;;;;;;12643015;23;20188;-70
2022/05/09 21:24:55;;;;;;;5.57;4.20;;;;;;;;;;12615917;23;20177;-69
2022/05/09 21:29:57;;;;;;;3.95;3.67;;;;;;;;;;12617646;23;20213;-70
2022/05/09 21:34:58;;;;;;;2.83;2.72;;;;;;;;;;12644136;23;20207;-70
2022/05/09 21:45:19;;;;;;;3.90;2.72;;;;;;;;;;12642774;23;20177;-71
2022/05/09 21:50:20;;;;;;;4.22;3.30;;;;;;;;;;12620966;23;20240;-69
2022/05/09 21:55:22;;;;;;;2.92;2.63;;;;;;;;;;12639137;23;20193;-69
2022/05/09 22:00:28;;;;;;;2.65;2.45;;;;;;;;;;12616242;23;20184;-70
2022/05/09 22:05:29;;;;;;;3.45;2.65;;;;;;;;;;12637145;23;20185;-70
2022/05/09 22:10:31;;;;;;;3.50;3.05;;;;;;;;;;12595848;23;20284;-69
2022/05/09 22:15:32;;;;;;;5.50;2.65;;;;;;;;;;12609531;23;20205;-70
2022/05/09 22:20:39;;;;;;;3.38;2.97;;;;;;;;;;12630670;23;20176;-69
2022/05/09 22:25:40;;;;;;;7.47;3.05;;;;;;;;;;12611894;23;20235;-69
2022/05/09 22:30:41;;;;;;;4.30;2.70;;;;;;;;;;12642426;23;20216;-71
2022/05/09 22:35:42;;;;;;;4.63;2.97;;;;;;;;;;12642045;23;20199;-70
2022/05/09 22:40:45;;;;;;;4.35;2.92;;;;;;;;;;12641545;23;20180;-69
2022/05/09 22:45:48;;;;;;;3.85;2.70;;;;;;;;;;12616568;23;20173;-70
2022/05/09 22:50:50;;;;;;;5.50;2.90;;;;;;;;;;12590072;23;20189;-69
2022/05/09 22:55:51;;;;;;;3.28;3.08;;;;;;;;;;12615344;23;20767;-69
2022/05/09 23:00:52;;;;;;;5.95;2.65;;;;;;;;;;12599569;23;20267;-69
2022/05/09 23:05:53;;;;;;;3.38;3.10;;;;;;;;;;12610450;23;20192;-69
2022/05/09 23:10:57;;;;;;;3.17;2.88;;;;;;;;;;12636748;23;20511;-70
2022/05/09 23:15:59;;;;;;;3.30;3.10;;;;;;;;;;12593047;23;20687;-69
2022/05/09 23:21:00;;;;;;;2.95;2.65;;;;;;;;;;12610491;23;20181;-69
2022/05/09 23:26:01;;;;;;;3.22;2.90;;;;;;;;;;12637907;23;20200;-69
2022/05/09 23:31:03;;;;;;;4.15;2.53;;;;;;;;;;12642198;23;20200;-69
2022/05/09 23:36:05;;;;;;;3.53;2.55;;;;;;;;;;12647562;23;20205;-70
2022/05/09 23:41:08;;;;;;;5.97;3.38;;;;;;;;;;12645422;23;20200;-70
2022/05/09 23:46:10;;;;;;;3.20;2.90;;;;;;;;;;12617969;23;20252;-70
2022/05/09 23:51:11;;;;;;;4.93;2.47;;;;;;;;;;12645094;23;20414;-70
2022/05/09 23:56:12;;;;;;;5.90;2.28;;;;;;;;;;12643728;23;20224;-68
